createdAt,value
2017-10-24T00:02:15.312Z,16.97
2017-10-24T00:04:46.113Z,17.87
2017-10-24T00:07:17.436Z,16.30
2017-10-24T00:09:47.824Z,16.20
2017-10-24T00:12:18.339Z,17.07
2017-10-24T00:14:48.802Z,17.17
2017-10-24T00:17:19.665Z,17.57
2017-10-24T00:19:50.126Z,16.53
2017-10-24T00:22:21.185Z,17.80
2017-10-24T00:24:51.618Z,17.37
2017-10-24T00:27:22.137Z,17.17
2017-10-24T00:32:58.603Z,16.80
2017-10-24T00:35:28.980Z,16.80
2017-10-24T00:38:00.344Z,15.53
2017-10-24T00:40:30.744Z,17.10
2017-10-24T00:43:03.176Z,15.40
2017-10-24T00:45:33.560Z,16.10
2017-10-24T00:48:05.147Z,17.80
2017-10-24T00:50:35.661Z,20.90
2017-10-24T00:53:06.032Z,20.33
2017-10-24T00:55:36.537Z,16.47
2017-10-24T00:58:06.949Z,15.73
2017-10-24T01:00:37.849Z,15.73
2017-10-24T01:03:09.075Z,13.10
2017-10-24T01:05:39.454Z,15.23
2017-10-24T01:08:10.104Z,14.67
2017-10-24T01:10:40.501Z,14.03
2017-10-24T01:13:11.131Z,14.07
2017-10-24T01:15:42.528Z,12.80
2017-10-24T01:18:13.331Z,13.90
2017-10-24T01:20:43.777Z,12.73
2017-10-24T01:23:14.175Z,12.97
2017-10-24T01:25:44.624Z,13.57
2017-10-24T01:28:14.997Z,13.60
2017-10-24T01:30:45.775Z,14.80
2017-10-24T01:33:16.210Z,13.90
2017-10-24T01:35:46.859Z,14.63
2017-10-24T01:38:17.628Z,12.57
2017-10-24T01:40:48.811Z,12.50
2017-10-24T01:43:19.877Z,12.30
2017-10-24T01:45:51.181Z,11.03
2017-10-24T01:48:22.955Z,11.00
2017-10-24T01:50:54.284Z,11.70
2017-10-24T01:53:24.676Z,11.87
2017-10-24T01:55:55.819Z,11.67
2017-10-24T01:58:26.969Z,10.67
2017-10-24T02:00:58.525Z,11.70
2017-10-24T02:03:29.685Z,10.87
2017-10-24T02:06:00.077Z,11.60
2017-10-24T02:08:30.456Z,9.67
2017-10-24T02:11:00.861Z,10.40
2017-10-24T02:13:31.287Z,9.50
2017-10-24T02:16:01.692Z,10.17
2017-10-24T02:18:33.177Z,10.27
2017-10-24T02:21:03.592Z,11.10
2017-10-24T02:23:33.966Z,11.40
2017-10-24T02:26:04.324Z,11.90
2017-10-24T02:28:35.487Z,12.17
2017-10-24T02:31:07.133Z,11.77
2017-10-24T02:33:38.300Z,12.23
2017-10-24T02:36:09.142Z,11.00
2017-10-24T02:38:39.526Z,10.90
2017-10-24T02:41:10.714Z,10.73
2017-10-24T02:43:41.103Z,12.17
2017-10-24T02:46:12.284Z,10.67
2017-10-24T02:48:43.078Z,10.50
2017-10-24T02:51:14.270Z,10.53
2017-10-24T02:53:44.641Z,11.40
2017-10-24T02:56:15.777Z,11.00
2017-10-24T02:58:46.153Z,10.93
2017-10-24T03:01:16.851Z,10.60
2017-10-24T03:03:47.305Z,10.80
2017-10-24T03:06:18.752Z,10.73
2017-10-24T03:08:49.213Z,11.10
2017-10-24T03:11:19.583Z,10.97
2017-10-24T03:13:50.756Z,11.17
2017-10-24T03:16:21.130Z,10.30
2017-10-24T03:18:52.033Z,9.80
2017-10-24T03:21:22.585Z,10.80
2017-10-24T03:23:52.976Z,9.47
2017-10-24T03:26:23.363Z,9.93
2017-10-24T03:28:54.532Z,9.43
2017-10-24T03:31:25.079Z,9.03
2017-10-24T03:33:55.501Z,9.13
2017-10-24T03:36:27.225Z,8.73
2017-10-24T03:38:58.358Z,8.40
2017-10-24T03:41:30.170Z,8.63
2017-10-24T03:44:00.542Z,8.73
2017-10-24T03:46:30.979Z,8.50
2017-10-24T03:49:02.538Z,7.20
2017-10-24T03:51:33.680Z,7.00
2017-10-24T03:54:05.034Z,7.43
2017-10-24T03:56:36.425Z,6.30
2017-10-24T03:59:06.836Z,6.80
2017-10-24T04:01:37.573Z,7.43
2017-10-24T04:04:07.955Z,7.30
2017-10-24T04:06:39.230Z,6.20
2017-10-24T04:09:09.652Z,5.77
2017-10-24T04:11:40.108Z,6.43
2017-10-24T04:14:10.487Z,7.07
2017-10-24T04:16:41.635Z,6.30
2017-10-24T04:19:14.202Z,6.13
2017-10-24T04:21:45.367Z,6.77
2017-10-24T04:24:15.999Z,6.13
2017-10-24T04:26:46.606Z,5.63
2017-10-24T04:29:18.018Z,5.50
2017-10-24T04:31:48.993Z,6.73
2017-10-24T04:34:20.439Z,6.00
2017-10-24T04:36:52.303Z,4.93
2017-10-24T04:39:23.471Z,5.90
2017-10-24T04:41:53.869Z,5.20
2017-10-24T04:44:24.238Z,5.57
2017-10-24T04:46:54.622Z,5.80
2017-10-24T04:49:27.087Z,5.60
2017-10-24T04:51:57.463Z,4.40
2017-10-24T04:54:27.891Z,5.03
2017-10-24T04:56:58.354Z,5.20
2017-10-24T04:59:28.735Z,4.67
2017-10-24T05:01:59.104Z,5.20
2017-10-24T05:04:29.513Z,4.10
2017-10-24T05:07:00.449Z,5.10
2017-10-24T05:09:31.036Z,5.70
2017-10-24T05:12:02.206Z,4.77
2017-10-24T05:14:33.166Z,4.63
2017-10-24T05:17:03.553Z,4.60
2017-10-24T05:19:34.150Z,5.93
2017-10-24T05:22:04.531Z,4.40
2017-10-24T05:24:35.331Z,4.47
2017-10-24T05:27:06.494Z,4.77
2017-10-24T05:29:36.821Z,4.53
2017-10-24T05:32:07.167Z,5.73
2017-10-24T05:34:37.497Z,5.07
2017-10-24T05:37:08.351Z,4.90
2017-10-24T05:39:38.715Z,4.40
2017-10-24T05:42:09.850Z,5.27
2017-10-24T05:44:40.976Z,4.83
2017-10-24T05:47:12.132Z,5.70
2017-10-24T05:49:44.516Z,3.97
2017-10-24T05:52:15.665Z,4.83
2017-10-24T05:54:46.657Z,4.13
2017-10-24T05:57:17.043Z,4.10
2017-10-24T05:59:47.448Z,4.87
2017-10-24T06:02:18.593Z,4.97
2017-10-24T06:04:49.727Z,4.50
2017-10-24T06:07:21.263Z,4.50
2017-10-24T06:09:51.682Z,5.10
2017-10-24T06:12:22.878Z,5.07
2017-10-24T06:14:53.303Z,5.10
2017-10-24T06:17:23.979Z,4.50
2017-10-24T06:19:55.154Z,4.67
2017-10-24T06:22:26.298Z,4.77
2017-10-24T06:24:58.473Z,4.67
2017-10-24T06:27:29.448Z,4.10
2017-10-24T06:29:59.862Z,4.73
2017-10-24T06:32:30.274Z,5.37
2017-10-24T06:35:00.653Z,4.80
2017-10-24T06:37:31.564Z,4.03
2017-10-24T06:40:02.025Z,4.50
2017-10-24T06:42:32.399Z,5.33
2017-10-24T06:45:02.825Z,5.53
2017-10-24T06:47:33.186Z,5.80
2017-10-24T06:50:04.014Z,4.90
2017-10-24T06:52:34.408Z,5.10
2017-10-24T06:55:05.216Z,4.67
2017-10-24T06:57:36.384Z,4.70
2017-10-24T07:00:06.749Z,4.70
2017-10-24T07:02:37.394Z,5.33
2017-10-24T07:05:07.961Z,5.53
2017-10-24T07:07:39.348Z,4.90
2017-10-24T07:10:09.944Z,4.47
2017-10-24T07:12:41.370Z,4.90
2017-10-24T07:15:12.641Z,5.37
2017-10-24T07:17:43.164Z,5.70
2017-10-24T07:20:16.408Z,5.20
2017-10-24T07:22:46.771Z,5.70
2017-10-24T07:25:18.466Z,5.60
2017-10-24T07:27:48.830Z,5.60
2017-10-24T07:30:19.229Z,5.60
2017-10-24T07:32:49.612Z,6.03
2017-10-24T07:35:20.780Z,4.90
2017-10-24T07:37:51.552Z,5.80
2017-10-24T07:40:21.998Z,6.20
2017-10-24T07:42:52.372Z,5.60
2017-10-24T07:45:22.966Z,6.07
2017-10-24T07:47:54.136Z,5.60
2017-10-24T07:50:25.063Z,6.60
2017-10-24T07:52:56.189Z,6.17
2017-10-24T07:55:27.706Z,5.90
2017-10-24T07:57:58.094Z,6.50
2017-10-24T08:00:28.583Z,6.20
2017-10-24T08:02:59.213Z,6.60
2017-10-24T08:05:29.611Z,6.40
2017-10-24T08:08:00.335Z,6.80
2017-10-24T08:10:30.736Z,5.87
2017-10-24T08:13:01.274Z,6.27
2017-10-24T08:15:31.624Z,5.90
2017-10-24T08:18:02.034Z,6.30
2017-10-24T08:20:32.442Z,6.93
2017-10-24T08:23:02.872Z,7.00
2017-10-24T08:25:33.511Z,6.20
2017-10-24T08:28:03.910Z,6.40
2017-10-24T08:30:35.054Z,5.87
2017-10-24T08:33:06.186Z,7.37
2017-10-24T08:35:37.331Z,6.70
2017-10-24T08:38:08.923Z,6.80
2017-10-24T08:40:39.309Z,7.03
2017-10-24T08:43:10.770Z,6.60
2017-10-24T08:45:41.889Z,6.77
2017-10-24T08:48:12.265Z,7.30
2017-10-24T08:50:42.901Z,6.90
2017-10-24T08:53:13.305Z,6.23
2017-10-24T08:55:44.183Z,6.37
2017-10-24T08:58:14.577Z,6.27
2017-10-24T09:00:45.146Z,5.63
2017-10-24T09:03:15.578Z,5.60
2017-10-24T09:05:54.469Z,5.77
2017-10-24T09:11:32.316Z,5.80
2017-10-24T09:14:03.561Z,6.00
2017-10-24T09:16:50.776Z,5.00
2017-10-24T09:22:36.765Z,4.50
2017-10-24T09:25:07.497Z,5.10
2017-10-24T09:27:37.889Z,4.73
2017-10-24T09:30:09.030Z,4.53
2017-10-24T09:32:42.459Z,5.53
2017-10-24T09:35:13.123Z,3.90
2017-10-24T09:37:44.087Z,4.43
2017-10-24T09:40:14.795Z,5.03
2017-10-24T09:42:45.945Z,4.60
2017-10-24T09:45:16.343Z,5.20
2017-10-24T09:47:46.875Z,4.53
2017-10-24T09:50:17.802Z,5.60
2017-10-24T09:52:48.166Z,4.60
2017-10-24T09:55:19.228Z,5.30
2017-10-24T09:57:49.670Z,4.17
2017-10-24T10:00:20.848Z,4.87
2017-10-24T10:02:51.269Z,5.07
2017-10-24T10:05:21.761Z,4.87
2017-10-24T10:07:54.170Z,4.73
2017-10-24T10:10:24.581Z,4.70
2017-10-24T10:12:56.126Z,4.47
2017-10-24T10:15:27.265Z,4.57
2017-10-24T10:17:58.412Z,5.50
2017-10-24T10:20:30.079Z,6.70
2017-10-24T10:23:00.491Z,6.33
2017-10-24T10:25:32.073Z,5.03
2017-10-24T10:28:02.449Z,5.73
2017-10-24T10:30:32.870Z,4.80
2017-10-24T10:33:03.254Z,13.80
2017-10-24T10:35:33.656Z,6.30
2017-10-24T10:38:04.555Z,5.70
2017-10-24T10:40:35.081Z,9.63
2017-10-24T10:43:05.879Z,13.80
2017-10-24T10:45:36.236Z,5.23
2017-10-24T10:48:06.613Z,10.80
2017-10-24T10:50:37.004Z,12.17
2017-10-24T10:56:39.035Z,11.13
2017-10-24T10:59:09.641Z,7.17
2017-10-24T11:01:40.372Z,7.53
2017-10-24T11:04:10.858Z,4.30
2017-10-24T11:06:41.290Z,17.93
2017-10-24T11:09:12.541Z,13.53
2017-10-24T11:11:44.255Z,4.57
2017-10-24T11:14:14.747Z,3.90
2017-10-24T11:16:45.182Z,4.33
2017-10-24T11:19:15.723Z,4.30
2017-10-24T11:21:46.161Z,4.67
2017-10-24T11:24:16.555Z,5.70
2017-10-24T11:26:47.005Z,6.20
2017-10-24T11:29:17.740Z,5.23
2017-10-24T11:31:48.148Z,5.17
2017-10-24T11:34:18.672Z,4.47
2017-10-24T11:36:49.125Z,5.00
2017-10-24T11:39:19.655Z,5.90
2017-10-24T11:41:50.418Z,5.87
2017-10-24T11:44:20.849Z,4.90
2017-10-24T11:46:51.439Z,4.87
2017-10-24T11:49:21.856Z,4.90
2017-10-24T11:51:52.344Z,5.43
2017-10-24T11:54:23.561Z,4.77
2017-10-24T11:56:54.070Z,5.03
2017-10-24T11:59:25.007Z,5.23
2017-10-24T12:01:55.406Z,5.30
2017-10-24T12:04:25.892Z,5.40
2017-10-24T12:06:56.309Z,5.10
2017-10-24T12:09:26.804Z,5.10
2017-10-24T12:11:58.832Z,4.83
2017-10-24T12:14:29.998Z,4.93
2017-10-24T12:17:01.766Z,4.37
2017-10-24T12:19:32.174Z,3.97
2017-10-24T12:22:03.416Z,4.17
2017-10-24T12:24:34.638Z,4.37
2017-10-24T12:27:05.029Z,3.77
2017-10-24T12:29:35.708Z,5.00
2017-10-24T12:32:06.868Z,5.10
2017-10-24T12:34:38.118Z,4.60
2017-10-24T12:37:08.582Z,3.90
2017-10-24T12:39:38.951Z,3.33
2017-10-24T12:42:15.698Z,4.20
2017-10-24T12:44:47.215Z,3.73
2017-10-24T12:47:18.255Z,3.53
2017-10-24T12:50:03.167Z,3.30
2017-10-24T12:52:33.790Z,3.30
2017-10-24T12:55:04.507Z,3.80
2017-10-24T12:57:50.265Z,3.77
2017-10-24T13:00:22.801Z,3.60
2017-10-24T13:02:54.327Z,3.83
2017-10-24T13:05:27.583Z,3.50
2017-10-24T13:07:58.296Z,3.50
2017-10-24T13:10:29.025Z,3.40
2017-10-24T13:13:00.942Z,4.10
2017-10-24T13:15:31.694Z,3.80
2017-10-24T13:18:02.427Z,3.77
2017-10-24T13:20:32.919Z,4.00
2017-10-24T13:23:03.429Z,4.57
2017-10-24T13:25:34.812Z,4.23
2017-10-24T13:28:05.221Z,4.00
2017-10-24T13:30:35.810Z,3.40
2017-10-24T13:33:07.133Z,4.53
2017-10-24T13:35:37.569Z,4.50
2017-10-24T13:38:08.019Z,3.83
2017-10-24T13:40:39.319Z,4.23
2017-10-24T13:43:10.136Z,3.50
2017-10-24T13:45:40.485Z,3.60
2017-10-24T13:48:10.884Z,3.80
2017-10-24T13:50:41.339Z,4.53
2017-10-24T13:53:11.814Z,4.70
2017-10-24T13:55:43.407Z,4.00
2017-10-24T13:58:13.872Z,3.33
2017-10-24T14:00:44.679Z,4.03
2017-10-24T14:03:15.157Z,3.70
2017-10-24T14:05:51.446Z,3.57
2017-10-24T14:08:27.044Z,3.67
2017-10-24T14:10:57.470Z,3.17
2017-10-24T14:13:28.367Z,3.30
2017-10-24T14:15:58.807Z,3.10
2017-10-24T14:18:29.248Z,3.27
2017-10-24T14:20:59.713Z,3.30
2017-10-24T14:23:30.860Z,2.83
2017-10-24T14:26:02.556Z,3.20
2017-10-24T14:28:32.965Z,3.20
2017-10-24T14:31:03.414Z,2.90
2017-10-24T14:33:33.831Z,3.43
2017-10-24T14:36:04.322Z,3.37
2017-10-24T14:38:34.798Z,3.20
2017-10-24T14:41:05.184Z,3.57
2017-10-24T14:43:36.108Z,3.17
2017-10-24T14:46:07.382Z,3.23
2017-10-24T14:48:37.942Z,3.63
2017-10-24T14:51:08.423Z,3.10
2017-10-24T14:53:39.680Z,3.17
2017-10-24T14:56:10.654Z,2.70
2017-10-24T14:58:41.078Z,3.40
2017-10-24T15:01:11.929Z,3.43
2017-10-24T15:03:42.432Z,3.20
2017-10-24T15:06:12.950Z,3.10
2017-10-24T15:08:43.468Z,2.77
2017-10-24T15:11:13.983Z,2.90
2017-10-24T15:13:45.482Z,3.00
2017-10-24T15:16:15.960Z,3.10
2017-10-24T15:18:47.365Z,2.80
2017-10-24T15:21:17.906Z,3.23
2017-10-24T15:23:48.408Z,3.30
2017-10-24T15:26:19.331Z,3.00
2017-10-24T15:28:49.860Z,2.63
2017-10-24T15:31:20.842Z,2.83
2017-10-24T15:33:51.286Z,3.00
2017-10-24T15:36:22.548Z,2.90
2017-10-24T15:38:53.876Z,3.30
2017-10-24T15:41:25.098Z,2.63
2017-10-24T15:43:55.823Z,3.50
2017-10-24T15:46:26.365Z,3.20
2017-10-24T15:48:56.849Z,3.40
2017-10-24T15:51:27.301Z,3.77
2017-10-24T15:53:57.819Z,2.67
2017-10-24T15:56:28.680Z,3.30
2017-10-24T15:59:00.030Z,2.70
2017-10-24T16:01:30.759Z,3.97
2017-10-24T16:04:01.223Z,3.50
2017-10-24T16:06:33.309Z,3.00
2017-10-24T16:09:03.842Z,2.77
2017-10-24T16:11:34.334Z,3.20
2017-10-24T16:14:05.977Z,2.57
2017-10-24T16:16:36.456Z,2.57
2017-10-24T16:19:07.266Z,2.70
2017-10-24T16:21:38.520Z,3.13
2017-10-24T16:24:09.799Z,3.40
2017-10-24T16:26:40.670Z,2.90
2017-10-24T16:29:11.183Z,2.37
2017-10-24T16:31:42.209Z,3.10
2017-10-24T16:34:12.737Z,2.60
2017-10-24T16:36:43.290Z,3.10
2017-10-24T16:39:13.883Z,2.87
2017-10-24T16:41:44.397Z,3.20
2017-10-24T16:44:15.120Z,3.47
2017-10-24T16:46:46.367Z,5.07
2017-10-24T16:49:17.561Z,5.50
2017-10-24T16:51:48.003Z,6.30
2017-10-24T16:54:19.059Z,7.23
2017-10-24T16:56:49.526Z,6.10
2017-10-24T16:59:20.019Z,6.97
2017-10-24T17:01:51.486Z,6.93
2017-10-24T17:04:21.901Z,6.47
2017-10-24T17:06:53.201Z,5.20
2017-10-24T17:09:23.716Z,6.50
2017-10-24T17:11:54.205Z,7.77
2017-10-24T17:14:25.968Z,6.30
2017-10-24T17:16:57.198Z,6.20
2017-10-24T17:19:28.153Z,6.50
2017-10-24T17:21:59.428Z,5.40
2017-10-24T17:24:29.981Z,4.90
2017-10-24T17:27:00.476Z,5.83
2017-10-24T17:29:30.979Z,4.97
2017-10-24T17:32:02.602Z,4.87
2017-10-24T17:34:33.130Z,6.07
2017-10-24T17:37:03.574Z,5.73
2017-10-24T17:39:34.017Z,5.50
2017-10-24T17:42:05.269Z,6.77
2017-10-24T17:44:36.837Z,5.63
2017-10-24T17:47:07.327Z,6.17
2017-10-24T17:49:38.152Z,5.97
2017-10-24T17:52:08.739Z,5.70
2017-10-24T17:54:39.184Z,6.30
2017-10-24T17:57:10.513Z,5.70
2017-10-24T17:59:40.991Z,6.40
2017-10-24T18:02:11.825Z,6.70
2017-10-24T18:04:42.627Z,5.33
2017-10-24T18:07:14.041Z,7.10
2017-10-24T18:09:45.328Z,7.10
2017-10-24T18:12:15.804Z,6.63
2017-10-24T18:14:47.459Z,6.47
2017-10-24T18:17:18.736Z,6.57
2017-10-24T18:19:49.485Z,6.90
2017-10-24T18:22:19.957Z,7.10
2017-10-24T18:24:50.501Z,7.00
2017-10-24T18:27:21.813Z,6.73
2017-10-24T18:29:52.247Z,7.00
2017-10-24T18:32:23.209Z,7.80
2017-10-24T18:34:54.531Z,6.20
2017-10-24T18:37:24.995Z,6.77
2017-10-24T18:39:56.289Z,6.83
2017-10-24T18:42:26.776Z,7.60
2017-10-24T18:44:58.483Z,6.90
2017-10-24T18:47:29.216Z,6.70
2017-10-24T18:50:00.092Z,7.57
2017-10-24T18:52:31.621Z,7.27
2017-10-24T18:55:02.167Z,6.47
2017-10-24T18:57:32.849Z,7.70
2017-10-24T19:00:03.594Z,7.60
2017-10-24T19:02:34.660Z,7.80
2017-10-24T19:05:05.515Z,8.00
2017-10-24T19:07:36.921Z,7.30
2017-10-24T19:10:07.717Z,6.80
2017-10-24T19:12:38.480Z,7.03
2017-10-24T19:15:09.454Z,7.17
2017-10-24T19:17:39.917Z,7.33
2017-10-24T19:20:11.226Z,8.10
2017-10-24T19:22:41.759Z,6.93
2017-10-24T19:25:12.338Z,8.30
2017-10-24T19:27:43.569Z,7.77
2017-10-24T19:30:14.078Z,7.83
2017-10-24T19:32:45.820Z,7.43
2017-10-24T19:35:16.345Z,7.53
2017-10-24T19:37:46.882Z,7.87
2017-10-24T19:40:17.378Z,8.30
2017-10-24T19:42:47.913Z,7.80
2017-10-24T19:45:18.902Z,7.70
2017-10-24T19:47:50.100Z,7.93
2017-10-24T19:50:21.006Z,9.20
2017-10-24T19:52:51.511Z,7.37
2017-10-24T19:55:22.791Z,8.47
2017-10-24T19:57:53.325Z,8.80
2017-10-24T20:00:23.884Z,8.27
2017-10-24T20:02:55.579Z,8.30
2017-10-24T20:05:26.743Z,9.07
2017-10-24T20:07:57.213Z,8.30
2017-10-24T20:10:27.813Z,7.67
2017-10-24T20:12:58.268Z,8.87
2017-10-24T20:15:28.746Z,9.50
2017-10-24T20:17:59.261Z,8.37
2017-10-24T20:20:30.821Z,8.37
2017-10-24T20:23:02.110Z,9.17
2017-10-24T20:25:48.291Z,8.00
2017-10-24T20:28:18.777Z,8.80
2017-10-24T20:30:50.491Z,7.53
2017-10-24T20:33:21.443Z,8.57
2017-10-24T20:35:51.982Z,8.33
2017-10-24T20:38:22.515Z,7.83
2017-10-24T20:40:53.123Z,9.67
2017-10-24T20:43:23.660Z,9.00
2017-10-24T20:45:54.412Z,8.70
2017-10-24T20:48:24.872Z,8.97
2017-10-24T20:50:55.653Z,9.37
2017-10-24T20:53:26.148Z,9.83
2017-10-24T20:55:56.755Z,9.47
2017-10-24T20:58:28.044Z,9.73
2017-10-24T21:00:58.555Z,10.03
2017-10-24T21:03:29.421Z,10.27
2017-10-24T21:05:59.937Z,8.70
2017-10-24T21:08:30.373Z,8.90
2017-10-24T21:11:01.080Z,9.70
2017-10-24T21:13:31.742Z,9.27
2017-10-24T21:16:02.334Z,8.30
2017-10-24T21:18:32.836Z,9.10
2017-10-24T21:21:05.185Z,8.83
2017-10-24T21:23:35.617Z,9.10
2017-10-24T21:26:05.980Z,9.47
2017-10-24T21:28:36.572Z,9.33
2017-10-24T21:31:07.046Z,9.30
2017-10-24T21:33:37.825Z,9.07
2017-10-24T21:36:08.273Z,10.07
2017-10-24T21:38:39.671Z,9.20
2017-10-24T21:41:10.220Z,10.17
2017-10-24T21:43:40.709Z,10.20
2017-10-24T21:46:11.291Z,10.00
2017-10-24T21:48:41.768Z,10.90
2017-10-24T21:51:12.579Z,9.13
2017-10-24T21:53:43.871Z,9.80
2017-10-24T21:56:14.379Z,10.17
2017-10-24T21:58:44.981Z,9.93
2017-10-24T22:01:16.240Z,10.13
2017-10-24T22:03:47.640Z,9.50
2017-10-24T22:06:18.170Z,9.70
2017-10-24T22:08:48.655Z,10.10
2017-10-24T22:11:19.108Z,11.17
2017-10-24T22:13:49.672Z,9.70
2017-10-24T22:16:20.247Z,10.10
2017-10-24T22:18:51.672Z,10.47
2017-10-24T22:21:23.664Z,10.57
2017-10-24T22:23:54.169Z,9.77
2017-10-24T22:26:24.773Z,9.83
2017-10-24T22:28:55.559Z,10.30
2017-10-24T22:31:26.038Z,10.30
2017-10-24T22:33:56.566Z,10.17
2017-10-24T22:36:27.060Z,9.67
2017-10-24T22:38:58.006Z,9.70
2017-10-24T22:41:28.536Z,8.53
2017-10-24T22:43:58.957Z,8.60
2017-10-24T22:46:29.424Z,9.20
2017-10-24T22:49:00.021Z,8.73
2017-10-24T22:51:30.889Z,9.20
2017-10-24T22:54:01.365Z,9.53
2017-10-24T22:56:31.903Z,9.20
2017-10-24T22:59:02.394Z,9.90
2017-10-24T23:01:33.640Z,9.57
2017-10-24T23:04:04.890Z,8.90
2017-10-24T23:06:35.396Z,10.17
2017-10-24T23:09:06.153Z,9.33
2017-10-24T23:11:37.402Z,9.40
2017-10-24T23:14:08.623Z,9.00
2017-10-24T23:16:39.046Z,10.00
2017-10-24T23:19:09.536Z,8.37
2017-10-24T23:21:40.221Z,10.17
2017-10-24T23:24:11.466Z,8.73
2017-10-24T23:26:42.738Z,9.40
2017-10-24T23:29:13.228Z,10.77
2017-10-24T23:31:43.694Z,10.03
2017-10-24T23:34:14.451Z,10.30
2017-10-24T23:36:44.939Z,9.97
2017-10-24T23:39:16.328Z,10.03
2017-10-24T23:41:46.809Z,9.90
2017-10-24T23:44:18.119Z,8.97
2017-10-24T23:46:48.623Z,10.47
2017-10-24T23:49:20.038Z,9.90
2017-10-24T23:51:51.649Z,10.17
2017-10-24T23:54:22.089Z,10.60
2017-10-24T23:56:52.510Z,9.20
2017-10-24T23:59:23.005Z,10.40
